KBURKFOE

Guest
Details From KBUR - BOB HOPE
To KFOE - FORBES FLD
Flight Number -
Tags generated
Created
Modified
Stats Distance 1,130 nm / 2,093 km
Max Altitude 35,000 ft / 10,668 m
Waypoints 12
Social Downloads 3
Likes 0
Share VATSIM

Download

Looking for another format? Having issues loading an existing format? Contact us
Advertisement - Login to hide

Notes

Basic altitude profile: - Ascent Rate: 2500ft/min - Ascent Speed: 250kts - Cruise Altitude: 35000ft - Cruise Speed: 420kts - Descent Rate: 1500ft/min - Descent Speed: 250kts Options: - Use NATs: yes - Use PACOTS: yes - Use low airways: yes - Use high airways: yes

Route

KBUR HEC J64 PGS J128 TBC J64 RSK J110 ALS J102 SLN KFOE

ID Type Via Altitude Latitude Longitude Leg Dist Tot Dist Heading (true) Name
O KBUR APT - 0 ft / 0 m 34.20048˚ -118.35877˚ - 0 nm - BOB HOPE
HEC VOR - 35,000 ft / 10,668 m 34.79703˚ -116.46292˚ 100 nm 100 nm 69° / 70° HECTOR VORTAC
GLACO FIX J64 (AWY-HI) 35,000 ft / 10,668 m 34.94446˚ -115.96759˚ 25 nm 126 nm 70° / 70° -
PGS DME J64 (AWY-HI) 35,000 ft / 10,668 m 35.62471˚ -113.54447˚ 125 nm 252 nm 70° / 72° PEACH SPRINGS VORTAC
TBC DME J128 (AWY-HI) 35,000 ft / 10,668 m 36.12131˚ -111.26959˚ 114 nm 366 nm 74° / 76° TUBA CITY VORTAC
COCAN FIX J64 (AWY-HI) 35,000 ft / 10,668 m 36.31252˚ -110.35197˚ 45 nm 412 nm 75° / 76° -
RSK VOR J64 (AWY-HI) 35,000 ft / 10,668 m 36.74839˚ -108.09889˚ 111 nm 524 nm 76° / 77° RATTLESNAKE VORTAC
ALS VOR J110 (AWY-HI) 35,000 ft / 10,668 m 37.34917˚ -105.81553˚ 115 nm 639 nm 71° / 72° ALAMOSA VORTAC
LAA VOR J102 (AWY-HI) 35,000 ft / 10,668 m 38.19708˚ -102.68753˚ 156 nm 796 nm 70° / 72° LAMAR VOR-DME
RYLIE FIX J102 (AWY-HI) 35,000 ft / 10,668 m 38.33731˚ -101.82748˚ 41 nm 838 nm 78° / 79° -
SLN VOR J102 (AWY-HI) 19,500 ft / 5,944 m 38.92514˚ -97.62136˚ 200 nm 1038 nm 79° / 81° SALINA VORTAC
O KFOE APT - 0 ft / 0 m 38.95023˚ -95.66399˚ 91 nm 1129 nm 88° / 90° FORBES FLD

Altitude Profile

Advertisement - Login to hide

Weather


0- 5 10 15 20 25 30 35+ Temperature / ° C

Clouds and Precipitation
Forecast for 2018-05-27 12:00 UTC. Updated 2 hours ago

Ground ~20,000 ft ~40,000 ft Winds

KBUR

Details ICAO KBUR (BUR)
Name BOB HOPE
Region United States
Timezone America/Los_Angeles (UTC-7.0)
Stats Elevation 778 ft / 237 m (AMSL)
Location 34.200475° -118.358767°
Runways 2
Magnetic Variation 12.007° E

METAR

KBUR 271325Z 00000KT 10SM BKN017 12/10 A2994 RMK AO2 T01220100

Decode

TAF

TAF AMD KBUR 271329Z 2713/2812 13006KT P6SM BKN015 FM271600 VRB03KT P6SM SKC FM272000 16008KT P6SM SKC FM280500 VRB03KT P6SM SKC FM281000 VRB03KT P6SM BKN015

Decode

Departure Runways

ID Width Length Bearing (true) Bearing (mag) Surface Threshold Offset Overrun Length
08 151 ft / 46 m 5,835 ft / 1,779 m 90.92° 78.91° Asphalt 0 ft / 0 m 259 ft / 79 m
15 151 ft / 46 m 6,962 ft / 2,122 m 167.12° 155.11° Asphalt 909 ft / 277 m 0 ft / 0 m
26 151 ft / 46 m 5,835 ft / 1,779 m 270.93° 258.92° Asphalt 0 ft / 0 m 253 ft / 77 m
33 151 ft / 46 m 6,962 ft / 2,122 m 347.12° 335.11° Asphalt 351 ft / 107 m 0 ft / 0 m

KFOE

Details ICAO KFOE (FOE)
Name FORBES FLD
Region United States
Timezone America/Chicago (UTC-5.0)
Stats Elevation 1,078 ft / 329 m (AMSL)
Location 38.950229° -95.663986°
Runways 2
Magnetic Variation 2.394° E

METAR

KFOE 271253Z 00000KT 10SM CLR 24/21 A2989 RMK AO2 SLP109 T02390206

Decode

TAF

TAF KFOE 271126Z 2712/2812 19007KT P6SM FEW080 SCT250= TAF KMHK 271126Z 2712/2812 18008KT P6SM FEW080 SCT250

Decode

Destination Runways

ID Width Length Bearing (true) Bearing (mag) Surface Threshold Offset Overrun Length
03 151 ft / 46 m 7,007 ft / 2,136 m 39.70° 37.31° Concrete 0 ft / 0 m 1,001 ft / 305 m
13 200 ft / 61 m 12,814 ft / 3,906 m 137.16° 134.77° Concrete 0 ft / 0 m 151 ft / 46 m
21 151 ft / 46 m 7,007 ft / 2,136 m 219.71° 217.32° Concrete 0 ft / 0 m 1,001 ft / 305 m
31 200 ft / 61 m 12,814 ft / 3,906 m 317.18° 314.79° Concrete 0 ft / 0 m 151 ft / 46 m

Approach Navaids

Runway Type Ident Frequency Range Bearing (true) Bearing (mag) Slope Elevation
31 Localiser IFOE 110.10 MHz 18 nm / 33 km 317.15° 314.76° - 1,058 ft / 322 m (AMSL)
31 Glidescope IFOE 110.10 MHz 10 nm / 19 km 317.17° 314.78° 3.00° 1,035 ft / 315 m (AMSL)
31 DME IFOE 110.10 MHz 18 nm / 33 km - - - 1,068 ft / 326 m (AMSL)

Popular Alternatives